sensor_id;sensor_type;location;lat;lon;timestamp;P1;durP1;ratioP1;P2;durP2;ratioP2
10142;SDS011;5112;54.088;13.446;2022-07-04T00:07:11;13.70;;;12.70;;
10142;SDS011;5112;54.088;13.446;2022-07-04T00:17:13;13.05;;;12.10;;
10142;SDS011;5112;54.088;13.446;2022-07-04T00:27:16;10.50;;;9.80;;
10142;SDS011;5112;54.088;13.446;2022-07-04T00:37:18;9.87;;;9.07;;
10142;SDS011;5112;54.088;13.446;2022-07-04T00:47:21;9.27;;;8.57;;
10142;SDS011;5112;54.088;13.446;2022-07-04T00:57:22;10.10;;;9.23;;
10142;SDS011;5112;54.088;13.446;2022-07-04T01:07:26;10.63;;;9.53;;
10142;SDS011;5112;54.088;13.446;2022-07-04T01:17:27;10.70;;;9.60;;
10142;SDS011;5112;54.088;13.446;2022-07-04T01:27:30;8.60;;;7.97;;
10142;SDS011;5112;54.088;13.446;2022-07-04T01:37:32;8.27;;;7.53;;
10142;SDS011;5112;54.088;13.446;2022-07-04T01:47:35;8.27;;;7.70;;
10142;SDS011;5112;54.088;13.446;2022-07-04T01:57:38;8.43;;;7.83;;
10142;SDS011;5112;54.088;13.446;2022-07-04T02:07:41;8.70;;;8.00;;
10142;SDS011;5112;54.088;13.446;2022-07-04T02:17:43;8.20;;;7.60;;
10142;SDS011;5112;54.088;13.446;2022-07-04T02:27:46;9.47;;;8.57;;
10142;SDS011;5112;54.088;13.446;2022-07-04T02:37:48;8.70;;;7.90;;
10142;SDS011;5112;54.088;13.446;2022-07-04T02:47:51;10.40;;;9.60;;
10142;SDS011;5112;54.088;13.446;2022-07-04T02:57:53;10.43;;;9.73;;
10142;SDS011;5112;54.088;13.446;2022-07-04T03:07:56;10.27;;;9.57;;
10142;SDS011;5112;54.088;13.446;2022-07-04T03:17:58;11.13;;;10.27;;
10142;SDS011;5112;54.088;13.446;2022-07-04T03:28:01;11.63;;;10.60;;
10142;SDS011;5112;54.088;13.446;2022-07-04T03:38:04;12.63;;;11.43;;
10142;SDS011;5112;54.088;13.446;2022-07-04T03:48:08;12.07;;;11.03;;
10142;SDS011;5112;54.088;13.446;2022-07-04T03:58:10;12.20;;;11.10;;
10142;SDS011;5112;54.088;13.446;2022-07-04T04:08:13;11.20;;;10.30;;
10142;SDS011;5112;54.088;13.446;2022-07-04T04:18:15;10.97;;;10.17;;
10142;SDS011;5112;54.088;13.446;2022-07-04T04:28:18;10.47;;;9.43;;
10142;SDS011;5112;54.088;13.446;2022-07-04T04:38:20;9.90;;;8.90;;
10142;SDS011;5112;54.088;13.446;2022-07-04T04:48:23;9.50;;;8.70;;
10142;SDS011;5112;54.088;13.446;2022-07-04T04:58:25;9.60;;;8.70;;
10142;SDS011;5112;54.088;13.446;2022-07-04T05:08:28;8.80;;;7.97;;
10142;SDS011;5112;54.088;13.446;2022-07-04T05:18:29;8.90;;;7.83;;
10142;SDS011;5112;54.088;13.446;2022-07-04T05:28:32;7.33;;;6.63;;
10142;SDS011;5112;54.088;13.446;2022-07-04T05:38:34;8.00;;;5.30;;
10142;SDS011;5112;54.088;13.446;2022-07-04T05:48:37;5.60;;;4.50;;
10142;SDS011;5112;54.088;13.446;2022-07-04T05:58:39;5.00;;;4.17;;
10142;SDS011;5112;54.088;13.446;2022-07-04T06:08:42;5.97;;;4.23;;
10142;SDS011;5112;54.088;13.446;2022-07-04T06:18:44;6.23;;;4.33;;
10142;SDS011;5112;54.088;13.446;2022-07-04T06:28:47;3.83;;;3.33;;
10142;SDS011;5112;54.088;13.446;2022-07-04T06:38:49;5.93;;;3.87;;
10142;SDS011;5112;54.088;13.446;2022-07-04T06:48:52;3.73;;;3.40;;
10142;SDS011;5112;54.088;13.446;2022-07-04T06:58:54;6.73;;;2.70;;
10142;SDS011;5112;54.088;13.446;2022-07-04T07:08:57;3.23;;;2.40;;
10142;SDS011;5112;54.088;13.446;2022-07-04T07:18:58;3.03;;;2.50;;
10142;SDS011;5112;54.088;13.446;2022-07-04T07:29:02;2.50;;;1.93;;
10142;SDS011;5112;54.088;13.446;2022-07-04T07:39:03;3.97;;;2.03;;
10142;SDS011;5112;54.088;13.446;2022-07-04T07:49:06;3.17;;;1.60;;
10142;SDS011;5112;54.088;13.446;2022-07-04T07:59:08;2.53;;;1.53;;
10142;SDS011;5112;54.088;13.446;2022-07-04T08:09:11;2.47;;;1.37;;
10142;SDS011;5112;54.088;13.446;2022-07-04T08:19:14;2.30;;;1.30;;
10142;SDS011;5112;54.088;13.446;2022-07-04T08:29:17;1.73;;;1.40;;
10142;SDS011;5112;54.088;13.446;2022-07-04T08:39:19;2.10;;;1.27;;
10142;SDS011;5112;54.088;13.446;2022-07-04T08:49:23;1.20;;;1.10;;
10142;SDS011;5112;54.088;13.446;2022-07-04T08:59:28;3.73;;;1.73;;
10142;SDS011;5112;54.088;13.446;2022-07-04T09:09:31;3.47;;;1.20;;
10142;SDS011;5112;54.088;13.446;2022-07-04T09:19:34;3.97;;;1.43;;
10142;SDS011;5112;54.088;13.446;2022-07-04T09:29:38;1.57;;;0.90;;
10142;SDS011;5112;54.088;13.446;2022-07-04T09:39:54;1.97;;;1.20;;
10142;SDS011;5112;54.088;13.446;2022-07-04T09:50:00;1.00;;;0.90;;
10142;SDS011;5112;54.088;13.446;2022-07-04T10:10:25;0.70;;;0.70;;
10142;SDS011;5112;54.088;13.446;2022-07-04T10:20:33;1.67;;;0.90;;
10142;SDS011;5112;54.088;13.446;2022-07-04T10:30:37;1.00;;;0.87;;
10142;SDS011;5112;54.088;13.446;2022-07-04T10:40:42;1.77;;;1.00;;
10142;SDS011;5112;54.088;13.446;2022-07-04T10:50:53;1.33;;;0.87;;
10142;SDS011;5112;54.088;13.446;2022-07-04T11:01:09;3.27;;;1.10;;
10142;SDS011;5112;54.088;13.446;2022-07-04T11:21:48;1.10;;;0.80;;
10142;SDS011;5112;54.088;13.446;2022-07-04T11:31:51;1.17;;;0.80;;
10142;SDS011;5112;54.088;13.446;2022-07-04T11:41:55;1.47;;;1.03;;
10142;SDS011;5112;54.088;13.446;2022-07-04T11:52:15;2.30;;;0.80;;
10142;SDS011;5112;54.088;13.446;2022-07-04T12:02:20;0.80;;;0.73;;
10142;SDS011;5112;54.088;13.446;2022-07-04T12:12:22;1.40;;;0.90;;
10142;SDS011;5112;54.088;13.446;2022-07-04T12:22:30;0.70;;;0.50;;
10142;SDS011;5112;54.088;13.446;2022-07-04T12:32:43;0.70;;;0.70;;
10142;SDS011;5112;54.088;13.446;2022-07-04T12:42:47;2.30;;;1.10;;
10142;SDS011;5112;54.088;13.446;2022-07-04T12:52:50;1.33;;;1.13;;
10142;SDS011;5112;54.088;13.446;2022-07-04T13:02:53;2.70;;;1.30;;
10142;SDS011;5112;54.088;13.446;2022-07-04T13:12:55;1.03;;;0.87;;
10142;SDS011;5112;54.088;13.446;2022-07-04T13:22:59;1.23;;;0.70;;
10142;SDS011;5112;54.088;13.446;2022-07-04T13:33:01;1.37;;;0.83;;
10142;SDS011;5112;54.088;13.446;2022-07-04T13:43:04;0.93;;;0.87;;
10142;SDS011;5112;54.088;13.446;2022-07-04T13:53:09;2.10;;;0.90;;
10142;SDS011;5112;54.088;13.446;2022-07-04T14:03:12;3.30;;;0.80;;
10142;SDS011;5112;54.088;13.446;2022-07-04T14:13:14;0.90;;;0.70;;
10142;SDS011;5112;54.088;13.446;2022-07-04T14:23:17;1.23;;;0.73;;
10142;SDS011;5112;54.088;13.446;2022-07-04T14:33:39;1.13;;;0.97;;
10142;SDS011;5112;54.088;13.446;2022-07-04T14:43:42;1.53;;;0.80;;
10142;SDS011;5112;54.088;13.446;2022-07-04T14:53:44;1.47;;;0.57;;
10142;SDS011;5112;54.088;13.446;2022-07-04T15:03:47;1.60;;;0.50;;
10142;SDS011;5112;54.088;13.446;2022-07-04T15:13:49;2.40;;;0.80;;
10142;SDS011;5112;54.088;13.446;2022-07-04T15:23:52;0.93;;;0.80;;
10142;SDS011;5112;54.088;13.446;2022-07-04T15:34:13;1.47;;;0.80;;
10142;SDS011;5112;54.088;13.446;2022-07-04T15:44:16;0.80;;;0.80;;
10142;SDS011;5112;54.088;13.446;2022-07-04T15:54:21;1.23;;;0.90;;
10142;SDS011;5112;54.088;13.446;2022-07-04T16:04:25;0.80;;;0.80;;
10142;SDS011;5112;54.088;13.446;2022-07-04T16:14:26;1.33;;;0.70;;
10142;SDS011;5112;54.088;13.446;2022-07-04T16:24:29;0.70;;;0.70;;
10142;SDS011;5112;54.088;13.446;2022-07-04T16:34:31;2.33;;;0.73;;
10142;SDS011;5112;54.088;13.446;2022-07-04T16:44:34;1.90;;;1.07;;
10142;SDS011;5112;54.088;13.446;2022-07-04T16:54:36;1.87;;;0.87;;
10142;SDS011;5112;54.088;13.446;2022-07-04T17:04:39;1.27;;;0.80;;
10142;SDS011;5112;54.088;13.446;2022-07-04T17:14:40;0.93;;;0.90;;
10142;SDS011;5112;54.088;13.446;2022-07-04T17:24:43;0.60;;;0.60;;
10142;SDS011;5112;54.088;13.446;2022-07-04T17:34:45;0.80;;;0.80;;
10142;SDS011;5112;54.088;13.446;2022-07-04T17:44:48;1.10;;;0.90;;
10142;SDS011;5112;54.088;13.446;2022-07-04T17:54:50;2.30;;;1.37;;
10142;SDS011;5112;54.088;13.446;2022-07-04T18:04:53;1.47;;;1.10;;
10142;SDS011;5112;54.088;13.446;2022-07-04T18:14:55;2.83;;;0.90;;
10142;SDS011;5112;54.088;13.446;2022-07-04T18:24:58;1.27;;;0.87;;
10142;SDS011;5112;54.088;13.446;2022-07-04T18:35:00;1.53;;;1.27;;
10142;SDS011;5112;54.088;13.446;2022-07-04T18:45:05;1.13;;;0.83;;
10142;SDS011;5112;54.088;13.446;2022-07-04T18:55:08;1.20;;;1.10;;
10142;SDS011;5112;54.088;13.446;2022-07-04T19:05:11;1.43;;;0.90;;
10142;SDS011;5112;54.088;13.446;2022-07-04T19:15:13;1.30;;;1.27;;
10142;SDS011;5112;54.088;13.446;2022-07-04T19:25:16;1.50;;;1.20;;
10142;SDS011;5112;54.088;13.446;2022-07-04T19:35:18;2.93;;;1.13;;
10142;SDS011;5112;54.088;13.446;2022-07-04T19:45:21;2.23;;;1.53;;
10142;SDS011;5112;54.088;13.446;2022-07-04T19:55:23;1.40;;;1.30;;
10142;SDS011;5112;54.088;13.446;2022-07-04T20:05:26;1.37;;;1.27;;
10142;SDS011;5112;54.088;13.446;2022-07-04T20:15:28;2.53;;;1.70;;
10142;SDS011;5112;54.088;13.446;2022-07-04T20:25:31;1.50;;;1.40;;
10142;SDS011;5112;54.088;13.446;2022-07-04T20:35:33;2.73;;;1.77;;
10142;SDS011;5112;54.088;13.446;2022-07-04T20:45:36;2.80;;;1.50;;
10142;SDS011;5112;54.088;13.446;2022-07-04T20:55:38;1.67;;;1.50;;
10142;SDS011;5112;54.088;13.446;2022-07-04T21:05:41;1.63;;;1.53;;
10142;SDS011;5112;54.088;13.446;2022-07-04T21:15:43;1.43;;;1.37;;
10142;SDS011;5112;54.088;13.446;2022-07-04T21:25:46;1.97;;;1.80;;
10142;SDS011;5112;54.088;13.446;2022-07-04T21:35:48;4.23;;;1.80;;
10142;SDS011;5112;54.088;13.446;2022-07-04T21:45:51;1.83;;;1.73;;
10142;SDS011;5112;54.088;13.446;2022-07-04T21:55:53;1.87;;;1.77;;
10142;SDS011;5112;54.088;13.446;2022-07-04T22:05:56;2.47;;;2.10;;
10142;SDS011;5112;54.088;13.446;2022-07-04T22:15:58;2.10;;;1.90;;
10142;SDS011;5112;54.088;13.446;2022-07-04T22:26:01;2.73;;;2.30;;
10142;SDS011;5112;54.088;13.446;2022-07-04T22:36:03;2.57;;;2.37;;
10142;SDS011;5112;54.088;13.446;2022-07-04T22:46:06;2.27;;;2.00;;
10142;SDS011;5112;54.088;13.446;2022-07-04T22:56:08;2.17;;;2.00;;
10142;SDS011;5112;54.088;13.446;2022-07-04T23:06:11;1.93;;;1.83;;
10142;SDS011;5112;54.088;13.446;2022-07-04T23:16:13;2.33;;;2.20;;
10142;SDS011;5112;54.088;13.446;2022-07-04T23:26:16;2.73;;;2.10;;
10142;SDS011;5112;54.088;13.446;2022-07-04T23:36:18;3.50;;;2.17;;
10142;SDS011;5112;54.088;13.446;2022-07-04T23:46:21;2.10;;;2.00;;
10142;SDS011;5112;54.088;13.446;2022-07-04T23:56:23;2.80;;;2.17;;
